Airport ID:KGOO
Update Time (UTC):20/08/2022 01:35
Wind Speed (Knots):0
Wind Direction (Magnetic):220
Temperature (°C):32
Dew Point (°C):3
Humidity (%):16
Altimeter (inHg):29.91
Density Altitude (Feet):5900
Visibility:10+
Clouds (Hundreds of feet):CLR
Present Weather:
METAR:METAR KGOO 200130Z AUTO 00000KT 10SM CLR 32/03 A2991 RMK A01

The data displayed is for advisory purposes only and is not to be used for flight planning or operations.